Stanton, Michigan
Current Conditions -  °F | °C
As of 6:14 AM on Thursday 18 Dec 2014 (Local Time) from KAMN Reporting Station
Overcast Overcast  
Wind Chill: -4°   Ceiling: 1200
Heat Index: -1°   Visibility: 10mi
Dew Point: -2°   Wind: 5mph
Humidity: 92%   Direction: 280°W
Pressure: 30.17"   Gusts: NA
Location:  43.29°N, 85.08°W
Report Text: KAMN 181114Z AUTO 28004KT 10SM OVC012 M01/M02 A3017 RMK AO2 T10101022
Loading
Personal Weather Stations






























Interactive Weather Map New forecast layout! Learn more

10-Day Weather Forecast

Advertisements
Track Severe Weather on mobile